sensor_id;sensor_type;location;lat;lon;timestamp;temperature;humidity
8888;DHT22;4480;52.370;9.748;2023-02-28T00:01:21;1.00;99.90
8888;DHT22;4480;52.370;9.748;2023-02-28T00:03:48;0.90;99.90
8888;DHT22;4480;52.370;9.748;2023-02-28T00:06:15;0.90;99.90
8888;DHT22;4480;52.370;9.748;2023-02-28T00:08:42;0.90;99.90
8888;DHT22;4480;52.370;9.748;2023-02-28T00:11:10;0.80;99.90
8888;DHT22;4480;52.370;9.748;2023-02-28T00:13:38;0.80;99.90
8888;DHT22;4480;52.370;9.748;2023-02-28T00:16:08;0.80;99.90
8888;DHT22;4480;52.370;9.748;2023-02-28T00:18:37;0.80;99.90
8888;DHT22;4480;52.370;9.748;2023-02-28T00:21:04;0.70;99.90
8888;DHT22;4480;52.370;9.748;2023-02-28T00:23:31;0.70;99.90
8888;DHT22;4480;52.370;9.748;2023-02-28T00:25:58;0.60;99.90
8888;DHT22;4480;52.370;9.748;2023-02-28T00:28:25;0.60;99.90
8888;DHT22;4480;52.370;9.748;2023-02-28T00:30:52;0.60;99.90
8888;DHT22;4480;52.370;9.748;2023-02-28T00:33:19;0.60;99.90
8888;DHT22;4480;52.370;9.748;2023-02-28T00:35:47;0.60;99.90
8888;DHT22;4480;52.370;9.748;2023-02-28T00:38:14;0.70;99.90
8888;DHT22;4480;52.370;9.748;2023-02-28T00:40:41;0.70;99.90
8888;DHT22;4480;52.370;9.748;2023-02-28T00:43:08;0.80;99.90
8888;DHT22;4480;52.370;9.748;2023-02-28T00:45:35;0.80;99.90
8888;DHT22;4480;52.370;9.748;2023-02-28T00:48:02;0.80;99.90
8888;DHT22;4480;52.370;9.748;2023-02-28T00:50:29;0.90;99.90
8888;DHT22;4480;52.370;9.748;2023-02-28T00:52:57;0.90;99.90
8888;DHT22;4480;52.370;9.748;2023-02-28T00:55:24;0.90;99.90
8888;DHT22;4480;52.370;9.748;2023-02-28T00:57:51;0.90;99.90
8888;DHT22;4480;52.370;9.748;2023-02-28T01:00:18;0.80;99.90
8888;DHT22;4480;52.370;9.748;2023-02-28T01:02:45;0.80;99.90
8888;DHT22;4480;52.370;9.748;2023-02-28T01:05:12;0.70;99.90
8888;DHT22;4480;52.370;9.748;2023-02-28T01:07:39;0.60;99.90
8888;DHT22;4480;52.370;9.748;2023-02-28T01:10:09;0.60;99.90
8888;DHT22;4480;52.370;9.748;2023-02-28T01:12:36;0.50;99.90
8888;DHT22;4480;52.370;9.748;2023-02-28T01:15:03;0.40;99.90
8888;DHT22;4480;52.370;9.748;2023-02-28T01:17:30;0.40;99.90
8888;DHT22;4480;52.370;9.748;2023-02-28T01:19:57;0.30;99.90
8888;DHT22;4480;52.370;9.748;2023-02-28T01:22:23;0.30;99.90
8888;DHT22;4480;52.370;9.748;2023-02-28T01:24:50;0.20;99.90
8888;DHT22;4480;52.370;9.748;2023-02-28T01:27:19;0.10;99.90
8888;DHT22;4480;52.370;9.748;2023-02-28T01:29:46;0.10;99.90
8888;DHT22;4480;52.370;9.748;2023-02-28T01:32:12;0.00;99.90
8888;DHT22;4480;52.370;9.748;2023-02-28T01:34:39;-0.10;99.90
8888;DHT22;4480;52.370;9.748;2023-02-28T01:37:06;-0.20;99.90
8888;DHT22;4480;52.370;9.748;2023-02-28T01:39:33;-0.20;99.90
8888;DHT22;4480;52.370;9.748;2023-02-28T01:41:59;-0.20;99.90
8888;DHT22;4480;52.370;9.748;2023-02-28T01:45:00;-0.20;99.90
8888;DHT22;4480;52.370;9.748;2023-02-28T01:47:30;-0.30;99.90
8888;DHT22;4480;52.370;9.748;2023-02-28T01:50:00;-0.30;99.90
8888;DHT22;4480;52.370;9.748;2023-02-28T01:52:29;-0.30;99.90
8888;DHT22;4480;52.370;9.748;2023-02-28T01:54:59;-0.40;99.90
8888;DHT22;4480;52.370;9.748;2023-02-28T01:57:29;-0.40;99.90
8888;DHT22;4480;52.370;9.748;2023-02-28T02:00:06;-0.40;99.90
8888;DHT22;4480;52.370;9.748;2023-02-28T02:02:35;-0.40;99.90
8888;DHT22;4480;52.370;9.748;2023-02-28T02:05:05;-0.50;99.90
8888;DHT22;4480;52.370;9.748;2023-02-28T02:07:34;-0.50;99.90
8888;DHT22;4480;52.370;9.748;2023-02-28T02:10:04;-0.50;99.90
8888;DHT22;4480;52.370;9.748;2023-02-28T02:15:40;-0.50;99.90
8888;DHT22;4480;52.370;9.748;2023-02-28T02:18:16;-0.60;99.90
8888;DHT22;4480;52.370;9.748;2023-02-28T02:24:02;-0.70;99.90
8888;DHT22;4480;52.370;9.748;2023-02-28T02:26:43;-0.80;99.90
8888;DHT22;4480;52.370;9.748;2023-02-28T02:35:07;-0.80;99.90
8888;DHT22;4480;52.370;9.748;2023-02-28T02:37:43;-0.80;99.90
8888;DHT22;4480;52.370;9.748;2023-02-28T02:40:17;-0.80;99.90
8888;DHT22;4480;52.370;9.748;2023-02-28T02:42:50;-0.80;99.90
8888;DHT22;4480;52.370;9.748;2023-02-28T02:45:21;-0.80;99.90
8888;DHT22;4480;52.370;9.748;2023-02-28T02:47:49;-0.90;99.90
8888;DHT22;4480;52.370;9.748;2023-02-28T02:50:22;-0.90;99.90
8888;DHT22;4480;52.370;9.748;2023-02-28T02:52:56;-0.90;99.90
8888;DHT22;4480;52.370;9.748;2023-02-28T02:55:26;-0.90;99.90
8888;DHT22;4480;52.370;9.748;2023-02-28T02:57:56;-0.90;99.90
8888;DHT22;4480;52.370;9.748;2023-02-28T03:00:28;-1.00;99.90
8888;DHT22;4480;52.370;9.748;2023-02-28T03:02:57;-1.00;99.90
8888;DHT22;4480;52.370;9.748;2023-02-28T03:05:27;-1.00;99.90
8888;DHT22;4480;52.370;9.748;2023-02-28T03:07:56;-1.10;99.90
8888;DHT22;4480;52.370;9.748;2023-02-28T03:10:30;-1.10;99.90
8888;DHT22;4480;52.370;9.748;2023-02-28T03:15:58;-1.20;99.90
8888;DHT22;4480;52.370;9.748;2023-02-28T03:18:35;-1.20;99.90
8888;DHT22;4480;52.370;9.748;2023-02-28T03:21:11;-1.20;99.90
8888;DHT22;4480;52.370;9.748;2023-02-28T03:23:45;-1.20;99.90
8888;DHT22;4480;52.370;9.748;2023-02-28T03:26:19;-1.20;99.90
8888;DHT22;4480;52.370;9.748;2023-02-28T03:28:53;-1.20;99.90
8888;DHT22;4480;52.370;9.748;2023-02-28T03:31:26;-1.20;99.90
8888;DHT22;4480;52.370;9.748;2023-02-28T03:33:59;-1.20;99.90
8888;DHT22;4480;52.370;9.748;2023-02-28T03:36:30;-1.20;99.90
8888;DHT22;4480;52.370;9.748;2023-02-28T03:39:01;-1.20;99.90
8888;DHT22;4480;52.370;9.748;2023-02-28T03:41:32;-1.20;99.90
8888;DHT22;4480;52.370;9.748;2023-02-28T03:44:04;-1.20;99.90
8888;DHT22;4480;52.370;9.748;2023-02-28T03:46:37;-1.20;99.90
8888;DHT22;4480;52.370;9.748;2023-02-28T03:49:11;-1.20;99.90
8888;DHT22;4480;52.370;9.748;2023-02-28T03:51:42;-1.30;99.90
8888;DHT22;4480;52.370;9.748;2023-02-28T03:54:12;-1.30;99.90
8888;DHT22;4480;52.370;9.748;2023-02-28T03:56:45;-1.30;99.90
8888;DHT22;4480;52.370;9.748;2023-02-28T03:59:16;-1.40;99.90
8888;DHT22;4480;52.370;9.748;2023-02-28T04:01:46;-1.40;99.90
8888;DHT22;4480;52.370;9.748;2023-02-28T04:04:14;-1.40;99.90
8888;DHT22;4480;52.370;9.748;2023-02-28T04:06:44;-1.40;99.90
8888;DHT22;4480;52.370;9.748;2023-02-28T04:11:20;-1.40;99.90
8888;DHT22;4480;52.370;9.748;2023-02-28T04:13:47;-1.40;99.90
8888;DHT22;4480;52.370;9.748;2023-02-28T04:16:14;-1.40;99.90
8888;DHT22;4480;52.370;9.748;2023-02-28T04:18:41;-1.40;99.90
8888;DHT22;4480;52.370;9.748;2023-02-28T04:21:10;-1.40;99.90
8888;DHT22;4480;52.370;9.748;2023-02-28T04:23:36;-1.40;99.90
8888;DHT22;4480;52.370;9.748;2023-02-28T04:26:04;-1.40;99.90
8888;DHT22;4480;52.370;9.748;2023-02-28T04:28:33;-1.40;99.90
8888;DHT22;4480;52.370;9.748;2023-02-28T04:31:02;-1.40;99.90
8888;DHT22;4480;52.370;9.748;2023-02-28T04:33:30;-1.40;99.90
8888;DHT22;4480;52.370;9.748;2023-02-28T04:36:01;-1.50;99.90
8888;DHT22;4480;52.370;9.748;2023-02-28T04:38:29;-1.50;99.90
8888;DHT22;4480;52.370;9.748;2023-02-28T04:40:57;-1.40;99.90
8888;DHT22;4480;52.370;9.748;2023-02-28T04:43:25;-1.40;99.90
8888;DHT22;4480;52.370;9.748;2023-02-28T04:45:54;-1.50;99.90
8888;DHT22;4480;52.370;9.748;2023-02-28T04:48:22;-1.40;99.90
8888;DHT22;4480;52.370;9.748;2023-02-28T04:50:49;-1.40;99.90
8888;DHT22;4480;52.370;9.748;2023-02-28T04:53:16;-1.50;99.90
8888;DHT22;4480;52.370;9.748;2023-02-28T04:55:43;-1.50;99.90
8888;DHT22;4480;52.370;9.748;2023-02-28T04:58:10;-1.50;99.90
8888;DHT22;4480;52.370;9.748;2023-02-28T05:00:37;-1.50;99.90
8888;DHT22;4480;52.370;9.748;2023-02-28T05:03:05;-1.50;99.90
8888;DHT22;4480;52.370;9.748;2023-02-28T05:05:32;-1.50;99.90
8888;DHT22;4480;52.370;9.748;2023-02-28T05:07:59;-1.60;99.90
8888;DHT22;4480;52.370;9.748;2023-02-28T05:10:26;-1.60;99.90
8888;DHT22;4480;52.370;9.748;2023-02-28T05:12:52;-1.60;99.90
8888;DHT22;4480;52.370;9.748;2023-02-28T05:15:19;-1.60;99.90
8888;DHT22;4480;52.370;9.748;2023-02-28T05:17:46;-1.60;99.90
8888;DHT22;4480;52.370;9.748;2023-02-28T05:20:14;-1.60;99.90
8888;DHT22;4480;52.370;9.748;2023-02-28T05:22:41;-1.60;99.90
8888;DHT22;4480;52.370;9.748;2023-02-28T05:25:10;-1.60;99.90
8888;DHT22;4480;52.370;9.748;2023-02-28T05:27:38;-1.60;99.90
8888;DHT22;4480;52.370;9.748;2023-02-28T05:30:06;-1.60;99.90
8888;DHT22;4480;52.370;9.748;2023-02-28T05:32:35;-1.60;99.90
8888;DHT22;4480;52.370;9.748;2023-02-28T05:35:03;-1.60;99.90
8888;DHT22;4480;52.370;9.748;2023-02-28T05:37:31;-1.60;99.90
8888;DHT22;4480;52.370;9.748;2023-02-28T05:39:58;-1.60;99.90
8888;DHT22;4480;52.370;9.748;2023-02-28T05:42:24;-1.60;99.90
8888;DHT22;4480;52.370;9.748;2023-02-28T05:44:51;-1.60;99.90
8888;DHT22;4480;52.370;9.748;2023-02-28T05:47:18;-1.60;99.90
8888;DHT22;4480;52.370;9.748;2023-02-28T05:49:45;-1.60;99.90
8888;DHT22;4480;52.370;9.748;2023-02-28T05:52:12;-1.70;99.90
8888;DHT22;4480;52.370;9.748;2023-02-28T05:54:40;-1.70;99.90
8888;DHT22;4480;52.370;9.748;2023-02-28T05:57:07;-1.70;99.90
8888;DHT22;4480;52.370;9.748;2023-02-28T05:59:34;-1.80;99.90
8888;DHT22;4480;52.370;9.748;2023-02-28T06:02:05;-1.80;99.90
8888;DHT22;4480;52.370;9.748;2023-02-28T06:04:32;-1.80;99.90
8888;DHT22;4480;52.370;9.748;2023-02-28T06:06:59;-1.80;99.90
8888;DHT22;4480;52.370;9.748;2023-02-28T06:09:27;-1.80;99.90
8888;DHT22;4480;52.370;9.748;2023-02-28T06:11:57;-1.80;99.90
8888;DHT22;4480;52.370;9.748;2023-02-28T06:14:24;-1.80;99.90
8888;DHT22;4480;52.370;9.748;2023-02-28T06:16:51;-1.80;99.90
8888;DHT22;4480;52.370;9.748;2023-02-28T06:19:18;-1.90;99.90
8888;DHT22;4480;52.370;9.748;2023-02-28T06:21:44;-1.90;99.90
8888;DHT22;4480;52.370;9.748;2023-02-28T06:24:11;-1.90;99.90
8888;DHT22;4480;52.370;9.748;2023-02-28T06:26:38;-1.90;99.90
8888;DHT22;4480;52.370;9.748;2023-02-28T06:29:06;-1.90;99.90
8888;DHT22;4480;52.370;9.748;2023-02-28T06:31:33;-1.90;99.90
8888;DHT22;4480;52.370;9.748;2023-02-28T06:34:00;-1.80;99.90
8888;DHT22;4480;52.370;9.748;2023-02-28T06:36:27;-1.80;99.90
8888;DHT22;4480;52.370;9.748;2023-02-28T06:38:54;-1.70;99.90
8888;DHT22;4480;52.370;9.748;2023-02-28T06:41:22;-1.60;99.90
8888;DHT22;4480;52.370;9.748;2023-02-28T06:43:49;-1.60;99.90
8888;DHT22;4480;52.370;9.748;2023-02-28T06:46:17;-1.60;99.90
8888;DHT22;4480;52.370;9.748;2023-02-28T06:48:45;-1.60;99.90
8888;DHT22;4480;52.370;9.748;2023-02-28T06:51:13;-1.50;99.90
8888;DHT22;4480;52.370;9.748;2023-02-28T06:53:41;-1.50;99.90
8888;DHT22;4480;52.370;9.748;2023-02-28T06:56:09;-1.40;99.90
8888;DHT22;4480;52.370;9.748;2023-02-28T06:58:37;-1.30;99.90
8888;DHT22;4480;52.370;9.748;2023-02-28T07:01:05;-1.20;99.90
8888;DHT22;4480;52.370;9.748;2023-02-28T07:03:35;-1.10;99.90
8888;DHT22;4480;52.370;9.748;2023-02-28T07:06:02;-1.10;99.90
8888;DHT22;4480;52.370;9.748;2023-02-28T07:08:29;-1.00;99.90
8888;DHT22;4480;52.370;9.748;2023-02-28T07:10:57;-0.80;99.90
8888;DHT22;4480;52.370;9.748;2023-02-28T07:13:24;-0.80;99.90
8888;DHT22;4480;52.370;9.748;2023-02-28T07:15:55;-0.60;99.90
8888;DHT22;4480;52.370;9.748;2023-02-28T07:18:22;-0.60;99.90
8888;DHT22;4480;52.370;9.748;2023-02-28T07:20:51;-0.40;99.90
8888;DHT22;4480;52.370;9.748;2023-02-28T07:23:17;-0.30;99.90
8888;DHT22;4480;52.370;9.748;2023-02-28T07:25:44;-0.20;99.90
8888;DHT22;4480;52.370;9.748;2023-02-28T07:28:12;-0.10;99.90
8888;DHT22;4480;52.370;9.748;2023-02-28T07:30:39;0.10;99.90
8888;DHT22;4480;52.370;9.748;2023-02-28T07:33:06;0.30;99.90
8888;DHT22;4480;52.370;9.748;2023-02-28T07:35:33;0.40;99.90
8888;DHT22;4480;52.370;9.748;2023-02-28T07:38:01;0.60;99.90
8888;DHT22;4480;52.370;9.748;2023-02-28T07:40:28;0.60;99.90
8888;DHT22;4480;52.370;9.748;2023-02-28T07:42:55;0.70;99.90
8888;DHT22;4480;52.370;9.748;2023-02-28T07:45:21;0.80;99.90
8888;DHT22;4480;52.370;9.748;2023-02-28T07:47:48;0.90;99.90
8888;DHT22;4480;52.370;9.748;2023-02-28T07:50:15;1.00;99.90
8888;DHT22;4480;52.370;9.748;2023-02-28T07:52:42;1.10;99.90
8888;DHT22;4480;52.370;9.748;2023-02-28T07:55:11;1.10;99.90
8888;DHT22;4480;52.370;9.748;2023-02-28T07:57:39;1.20;99.90
8888;DHT22;4480;52.370;9.748;2023-02-28T08:00:09;1.20;99.90
8888;DHT22;4480;52.370;9.748;2023-02-28T08:02:36;1.30;99.90
8888;DHT22;4480;52.370;9.748;2023-02-28T08:05:04;1.30;99.90
8888;DHT22;4480;52.370;9.748;2023-02-28T08:07:31;1.30;99.90
8888;DHT22;4480;52.370;9.748;2023-02-28T08:09:57;1.20;99.90
8888;DHT22;4480;52.370;9.748;2023-02-28T08:12:26;1.20;99.90
8888;DHT22;4480;52.370;9.748;2023-02-28T08:14:52;1.20;99.90
8888;DHT22;4480;52.370;9.748;2023-02-28T08:17:19;1.30;99.90
8888;DHT22;4480;52.370;9.748;2023-02-28T08:19:46;1.30;99.90
8888;DHT22;4480;52.370;9.748;2023-02-28T08:22:13;1.30;99.90
8888;DHT22;4480;52.370;9.748;2023-02-28T08:24:41;1.40;99.90
8888;DHT22;4480;52.370;9.748;2023-02-28T08:27:08;1.50;99.90
8888;DHT22;4480;52.370;9.748;2023-02-28T08:29:38;1.60;99.90
8888;DHT22;4480;52.370;9.748;2023-02-28T08:32:05;1.70;99.90
8888;DHT22;4480;52.370;9.748;2023-02-28T08:34:32;1.80;99.90
8888;DHT22;4480;52.370;9.748;2023-02-28T08:36:59;2.00;99.90
8888;DHT22;4480;52.370;9.748;2023-02-28T08:39:26;2.00;99.90
8888;DHT22;4480;52.370;9.748;2023-02-28T08:41:52;2.10;99.90
8888;DHT22;4480;52.370;9.748;2023-02-28T08:44:19;2.10;99.90
8888;DHT22;4480;52.370;9.748;2023-02-28T08:46:47;2.20;99.90
8888;DHT22;4480;52.370;9.748;2023-02-28T08:49:14;2.30;99.70
8888;DHT22;4480;52.370;9.748;2023-02-28T08:51:41;2.40;98.80
8888;DHT22;4480;52.370;9.748;2023-02-28T08:54:08;2.50;98.50
8888;DHT22;4480;52.370;9.748;2023-02-28T08:56:38;2.60;98.20
8888;DHT22;4480;52.370;9.748;2023-02-28T08:59:05;2.70;97.50
8888;DHT22;4480;52.370;9.748;2023-02-28T09:01:31;2.80;97.00
8888;DHT22;4480;52.370;9.748;2023-02-28T09:04:00;2.90;96.20
8888;DHT22;4480;52.370;9.748;2023-02-28T09:06:28;3.00;95.20
8888;DHT22;4480;52.370;9.748;2023-02-28T09:08:56;3.00;94.80
8888;DHT22;4480;52.370;9.748;2023-02-28T09:11:25;3.10;94.20
8888;DHT22;4480;52.370;9.748;2023-02-28T09:13:52;3.10;93.70
8888;DHT22;4480;52.370;9.748;2023-02-28T09:16:21;3.20;93.30
8888;DHT22;4480;52.370;9.748;2023-02-28T09:18:48;3.20;92.60
8888;DHT22;4480;52.370;9.748;2023-02-28T09:21:17;3.30;92.70
8888;DHT22;4480;52.370;9.748;2023-02-28T09:23:46;3.30;91.70
8888;DHT22;4480;52.370;9.748;2023-02-28T09:26:15;3.30;91.00
8888;DHT22;4480;52.370;9.748;2023-02-28T09:28:42;3.30;91.10
8888;DHT22;4480;52.370;9.748;2023-02-28T09:31:13;3.40;90.80
8888;DHT22;4480;52.370;9.748;2023-02-28T09:33:40;3.50;90.50
8888;DHT22;4480;52.370;9.748;2023-02-28T09:36:08;3.60;90.20
8888;DHT22;4480;52.370;9.748;2023-02-28T09:38:36;3.70;89.10
8888;DHT22;4480;52.370;9.748;2023-02-28T09:41:09;3.70;86.90
8888;DHT22;4480;52.370;9.748;2023-02-28T09:43:39;3.70;85.50
8888;DHT22;4480;52.370;9.748;2023-02-28T09:46:19;3.80;85.40
8888;DHT22;4480;52.370;9.748;2023-02-28T09:48:48;3.80;84.70
8888;DHT22;4480;52.370;9.748;2023-02-28T09:51:28;3.90;84.60
8888;DHT22;4480;52.370;9.748;2023-02-28T09:53:57;4.10;84.10
8888;DHT22;4480;52.370;9.748;2023-02-28T09:56:28;4.20;83.40
8888;DHT22;4480;52.370;9.748;2023-02-28T09:59:00;4.30;81.10
8888;DHT22;4480;52.370;9.748;2023-02-28T10:01:34;4.40;80.70
8888;DHT22;4480;52.370;9.748;2023-02-28T10:04:08;4.50;80.00
8888;DHT22;4480;52.370;9.748;2023-02-28T10:06:42;4.50;77.90
8888;DHT22;4480;52.370;9.748;2023-02-28T10:09:15;4.50;76.00
8888;DHT22;4480;52.370;9.748;2023-02-28T10:11:44;4.60;75.60
8888;DHT22;4480;52.370;9.748;2023-02-28T10:14:14;4.70;75.30
8888;DHT22;4480;52.370;9.748;2023-02-28T10:16:43;4.70;73.30
8888;DHT22;4480;52.370;9.748;2023-02-28T10:19:21;4.80;72.40
8888;DHT22;4480;52.370;9.748;2023-02-28T10:21:55;4.70;70.20
8888;DHT22;4480;52.370;9.748;2023-02-28T10:24:29;4.70;69.60
8888;DHT22;4480;52.370;9.748;2023-02-28T10:27:00;4.70;69.30
8888;DHT22;4480;52.370;9.748;2023-02-28T10:29:28;4.80;69.00
8888;DHT22;4480;52.370;9.748;2023-02-28T10:31:56;4.80;68.10
8888;DHT22;4480;52.370;9.748;2023-02-28T10:34:24;4.80;66.70
8888;DHT22;4480;52.370;9.748;2023-02-28T10:36:51;4.90;66.30
8888;DHT22;4480;52.370;9.748;2023-02-28T10:39:38;4.90;65.80
8888;DHT22;4480;52.370;9.748;2023-02-28T10:42:20;5.00;64.20
8888;DHT22;4480;52.370;9.748;2023-02-28T10:44:47;5.00;62.50
8888;DHT22;4480;52.370;9.748;2023-02-28T10:47:16;4.90;61.60
8888;DHT22;4480;52.370;9.748;2023-02-28T10:49:47;5.00;61.80
8888;DHT22;4480;52.370;9.748;2023-02-28T10:52:35;5.10;62.00
8888;DHT22;4480;52.370;9.748;2023-02-28T10:55:21;5.20;60.40
8888;DHT22;4480;52.370;9.748;2023-02-28T10:57:48;5.20;59.30
8888;DHT22;4480;52.370;9.748;2023-02-28T11:00:18;5.20;58.60
8888;DHT22;4480;52.370;9.748;2023-02-28T11:02:47;5.20;58.10
8888;DHT22;4480;52.370;9.748;2023-02-28T11:05:26;5.30;57.20
8888;DHT22;4480;52.370;9.748;2023-02-28T11:07:54;5.30;56.40
8888;DHT22;4480;52.370;9.748;2023-02-28T11:10:26;5.30;56.20
8888;DHT22;4480;52.370;9.748;2023-02-28T11:12:55;5.50;55.60
8888;DHT22;4480;52.370;9.748;2023-02-28T11:15:24;5.50;54.10
8888;DHT22;4480;52.370;9.748;2023-02-28T11:17:57;5.40;53.50
8888;DHT22;4480;52.370;9.748;2023-02-28T11:20:27;5.30;52.80
8888;DHT22;4480;52.370;9.748;2023-02-28T11:22:56;5.30;51.30
8888;DHT22;4480;52.370;9.748;2023-02-28T11:25:26;5.30;50.60
8888;DHT22;4480;52.370;9.748;2023-02-28T11:27:54;5.20;50.30
8888;DHT22;4480;52.370;9.748;2023-02-28T11:30:27;5.30;50.30
8888;DHT22;4480;52.370;9.748;2023-02-28T11:32:54;5.40;50.50
8888;DHT22;4480;52.370;9.748;2023-02-28T11:35:26;5.50;50.50
8888;DHT22;4480;52.370;9.748;2023-02-28T11:37:53;5.50;50.30
8888;DHT22;4480;52.370;9.748;2023-02-28T11:40:28;5.50;50.30
8888;DHT22;4480;52.370;9.748;2023-02-28T11:43:03;5.50;50.70
8888;DHT22;4480;52.370;9.748;2023-02-28T11:45:48;5.70;51.00
8888;DHT22;4480;52.370;9.748;2023-02-28T11:48:21;5.70;50.90
8888;DHT22;4480;52.370;9.748;2023-02-28T11:50:58;5.60;51.30
8888;DHT22;4480;52.370;9.748;2023-02-28T11:53:42;5.60;51.80
8888;DHT22;4480;52.370;9.748;2023-02-28T11:56:21;5.40;52.10
8888;DHT22;4480;52.370;9.748;2023-02-28T11:58:59;5.30;52.70
8888;DHT22;4480;52.370;9.748;2023-02-28T12:01:41;5.10;53.00
8888;DHT22;4480;52.370;9.748;2023-02-28T12:04:17;5.00;53.40
8888;DHT22;4480;52.370;9.748;2023-02-28T12:06:55;5.00;53.80
8888;DHT22;4480;52.370;9.748;2023-02-28T12:09:35;5.00;54.10
8888;DHT22;4480;52.370;9.748;2023-02-28T12:12:17;5.10;54.30
8888;DHT22;4480;52.370;9.748;2023-02-28T12:15:18;5.10;54.20
8888;DHT22;4480;52.370;9.748;2023-02-28T12:18:03;5.40;54.40
8888;DHT22;4480;52.370;9.748;2023-02-28T12:20:34;5.70;54.10
8888;DHT22;4480;52.370;9.748;2023-02-28T12:23:26;6.00;53.10
8888;DHT22;4480;52.370;9.748;2023-02-28T12:26:07;6.20;52.70
8888;DHT22;4480;52.370;9.748;2023-02-28T12:28:41;6.40;52.00
8888;DHT22;4480;52.370;9.748;2023-02-28T12:31:13;6.40;51.30
8888;DHT22;4480;52.370;9.748;2023-02-28T12:33:45;6.30;51.00
8888;DHT22;4480;52.370;9.748;2023-02-28T12:36:15;6.20;51.30
8888;DHT22;4480;52.370;9.748;2023-02-28T12:38:47;6.10;51.50
8888;DHT22;4480;52.370;9.748;2023-02-28T12:41:16;6.00;51.70
8888;DHT22;4480;52.370;9.748;2023-02-28T12:43:48;5.90;52.10
8888;DHT22;4480;52.370;9.748;2023-02-28T12:46:19;6.00;52.30
8888;DHT22;4480;52.370;9.748;2023-02-28T12:48:52;6.00;52.50
8888;DHT22;4480;52.370;9.748;2023-02-28T12:51:21;6.10;52.70
8888;DHT22;4480;52.370;9.748;2023-02-28T12:53:56;6.10;52.70
8888;DHT22;4480;52.370;9.748;2023-02-28T12:56:33;6.00;53.00
8888;DHT22;4480;52.370;9.748;2023-02-28T12:59:07;5.80;52.50
8888;DHT22;4480;52.370;9.748;2023-02-28T13:01:45;5.60;52.60
8888;DHT22;4480;52.370;9.748;2023-02-28T13:04:44;5.50;52.70
8888;DHT22;4480;52.370;9.748;2023-02-28T13:07:39;5.50;53.00
8888;DHT22;4480;52.370;9.748;2023-02-28T13:10:12;5.60;53.00
8888;DHT22;4480;52.370;9.748;2023-02-28T13:12:48;5.70;53.10
8888;DHT22;4480;52.370;9.748;2023-02-28T13:15:20;5.70;52.80
8888;DHT22;4480;52.370;9.748;2023-02-28T13:17:51;5.70;52.90
8888;DHT22;4480;52.370;9.748;2023-02-28T13:20:20;5.80;53.00
8888;DHT22;4480;52.370;9.748;2023-02-28T13:22:49;5.90;53.00
8888;DHT22;4480;52.370;9.748;2023-02-28T13:25:52;6.00;52.60
8888;DHT22;4480;52.370;9.748;2023-02-28T13:38:31;6.00;52.50
8888;DHT22;4480;52.370;9.748;2023-02-28T13:44:02;6.00;52.50
8888;DHT22;4480;52.370;9.748;2023-02-28T13:46:30;5.90;52.20
8888;DHT22;4480;52.370;9.748;2023-02-28T13:49:23;5.90;52.50
8888;DHT22;4480;52.370;9.748;2023-02-28T13:51:51;6.00;52.40
8888;DHT22;4480;52.370;9.748;2023-02-28T13:54:27;6.00;52.10
8888;DHT22;4480;52.370;9.748;2023-02-28T13:57:06;5.90;51.90
8888;DHT22;4480;52.370;9.748;2023-02-28T13:59:46;5.90;52.00
8888;DHT22;4480;52.370;9.748;2023-02-28T14:02:31;5.90;52.10
8888;DHT22;4480;52.370;9.748;2023-02-28T14:05:02;5.90;52.20
8888;DHT22;4480;52.370;9.748;2023-02-28T14:07:36;6.00;52.30
8888;DHT22;4480;52.370;9.748;2023-02-28T14:10:08;6.00;52.50
8888;DHT22;4480;52.370;9.748;2023-02-28T14:13:03;6.00;51.60
8888;DHT22;4480;52.370;9.748;2023-02-28T14:15:50;5.90;51.50
8888;DHT22;4480;52.370;9.748;2023-02-28T14:18:28;5.90;51.70
8888;DHT22;4480;52.370;9.748;2023-02-28T14:21:01;5.80;51.60
8888;DHT22;4480;52.370;9.748;2023-02-28T14:23:56;5.80;51.70
8888;DHT22;4480;52.370;9.748;2023-02-28T14:26:48;5.90;51.80
8888;DHT22;4480;52.370;9.748;2023-02-28T14:29:42;5.90;51.60
8888;DHT22;4480;52.370;9.748;2023-02-28T14:32:15;5.90;51.20
8888;DHT22;4480;52.370;9.748;2023-02-28T14:34:52;5.80;51.00
8888;DHT22;4480;52.370;9.748;2023-02-28T14:37:26;5.90;51.10
8888;DHT22;4480;52.370;9.748;2023-02-28T14:39:53;5.90;51.10
8888;DHT22;4480;52.370;9.748;2023-02-28T14:42:31;6.00;51.10
8888;DHT22;4480;52.370;9.748;2023-02-28T14:44:58;6.00;51.00
8888;DHT22;4480;52.370;9.748;2023-02-28T14:47:28;6.00;50.80
8888;DHT22;4480;52.370;9.748;2023-02-28T14:49:57;5.90;50.30
8888;DHT22;4480;52.370;9.748;2023-02-28T14:52:26;5.80;50.40
8888;DHT22;4480;52.370;9.748;2023-02-28T14:54:56;5.70;50.50
8888;DHT22;4480;52.370;9.748;2023-02-28T14:57:26;5.70;50.70
8888;DHT22;4480;52.370;9.748;2023-02-28T15:00:03;5.70;50.80
8888;DHT22;4480;52.370;9.748;2023-02-28T15:02:36;5.70;50.80
8888;DHT22;4480;52.370;9.748;2023-02-28T15:05:19;5.60;50.80
8888;DHT22;4480;52.370;9.748;2023-02-28T15:07:49;5.60;50.80
8888;DHT22;4480;52.370;9.748;2023-02-28T15:10:27;5.60;50.70
8888;DHT22;4480;52.370;9.748;2023-02-28T15:12:56;5.60;50.60
8888;DHT22;4480;52.370;9.748;2023-02-28T15:15:27;5.60;50.60
8888;DHT22;4480;52.370;9.748;2023-02-28T15:17:59;5.50;50.50
8888;DHT22;4480;52.370;9.748;2023-02-28T15:20:28;5.50;50.50
8888;DHT22;4480;52.370;9.748;2023-02-28T15:22:56;5.40;50.60
8888;DHT22;4480;52.370;9.748;2023-02-28T15:25:23;5.40;50.70
8888;DHT22;4480;52.370;9.748;2023-02-28T15:27:53;5.50;51.00
8888;DHT22;4480;52.370;9.748;2023-02-28T15:30:26;5.50;50.90
8888;DHT22;4480;52.370;9.748;2023-02-28T15:33:06;5.50;50.70
8888;DHT22;4480;52.370;9.748;2023-02-28T15:35:37;5.40;50.50
8888;DHT22;4480;52.370;9.748;2023-02-28T15:38:15;5.40;50.70
8888;DHT22;4480;52.370;9.748;2023-02-28T15:40:44;5.30;50.80
8888;DHT22;4480;52.370;9.748;2023-02-28T15:43:15;5.30;50.80
8888;DHT22;4480;52.370;9.748;2023-02-28T15:45:47;5.30;50.90
8888;DHT22;4480;52.370;9.748;2023-02-28T15:48:20;5.20;50.80
8888;DHT22;4480;52.370;9.748;2023-02-28T15:50:50;5.20;50.80
8888;DHT22;4480;52.370;9.748;2023-02-28T15:53:21;5.10;50.90
8888;DHT22;4480;52.370;9.748;2023-02-28T15:55:53;5.10;51.00
8888;DHT22;4480;52.370;9.748;2023-02-28T15:58:22;5.00;51.10
8888;DHT22;4480;52.370;9.748;2023-02-28T16:01:05;5.00;51.30
8888;DHT22;4480;52.370;9.748;2023-02-28T16:03:40;5.00;51.60
8888;DHT22;4480;52.370;9.748;2023-02-28T16:08:54;4.90;51.70
8888;DHT22;4480;52.370;9.748;2023-02-28T16:11:21;4.90;51.80
8888;DHT22;4480;52.370;9.748;2023-02-28T16:13:48;4.90;52.10
8888;DHT22;4480;52.370;9.748;2023-02-28T16:16:19;4.80;52.10
8888;DHT22;4480;52.370;9.748;2023-02-28T16:18:46;4.70;52.30
8888;DHT22;4480;52.370;9.748;2023-02-28T16:21:13;4.70;52.60
8888;DHT22;4480;52.370;9.748;2023-02-28T16:23:40;4.60;52.70
8888;DHT22;4480;52.370;9.748;2023-02-28T16:26:07;4.60;53.00
8888;DHT22;4480;52.370;9.748;2023-02-28T16:28:36;4.60;53.20
8888;DHT22;4480;52.370;9.748;2023-02-28T16:31:06;4.50;53.30
8888;DHT22;4480;52.370;9.748;2023-02-28T16:33:34;4.50;53.50
8888;DHT22;4480;52.370;9.748;2023-02-28T16:36:01;4.40;53.70
8888;DHT22;4480;52.370;9.748;2023-02-28T16:38:28;4.40;53.90
8888;DHT22;4480;52.370;9.748;2023-02-28T16:40:56;4.30;54.10
8888;DHT22;4480;52.370;9.748;2023-02-28T16:43:25;4.30;54.30
8888;DHT22;4480;52.370;9.748;2023-02-28T16:45:55;4.30;54.50
8888;DHT22;4480;52.370;9.748;2023-02-28T16:48:23;4.20;54.60
8888;DHT22;4480;52.370;9.748;2023-02-28T16:50:51;4.10;54.80
8888;DHT22;4480;52.370;9.748;2023-02-28T16:53:18;4.10;55.00
8888;DHT22;4480;52.370;9.748;2023-02-28T16:55:46;4.00;55.10
8888;DHT22;4480;52.370;9.748;2023-02-28T16:58:15;4.00;55.40
8888;DHT22;4480;52.370;9.748;2023-02-28T17:00:43;3.90;55.60
8888;DHT22;4480;52.370;9.748;2023-02-28T17:03:20;3.80;55.80
8888;DHT22;4480;52.370;9.748;2023-02-28T17:05:48;3.70;56.20
8888;DHT22;4480;52.370;9.748;2023-02-28T17:08:16;3.60;56.40